sensor_id;sensor_type;location;lat;lon;timestamp;temperature;humidity
30399;DHT22;17195;50.838;7.214;2023-03-31T00:01:34;12.20;99.90
30399;DHT22;17195;50.838;7.214;2023-03-31T00:04:00;12.10;99.90
30399;DHT22;17195;50.838;7.214;2023-03-31T00:06:31;12.10;99.90
30399;DHT22;17195;50.838;7.214;2023-03-31T00:09:06;12.10;99.90
30399;DHT22;17195;50.838;7.214;2023-03-31T00:11:31;12.00;99.90
30399;DHT22;17195;50.838;7.214;2023-03-31T00:13:57;12.00;99.90
30399;DHT22;17195;50.838;7.214;2023-03-31T00:16:23;12.00;99.90
30399;DHT22;17195;50.838;7.214;2023-03-31T00:18:49;11.90;99.90
30399;DHT22;17195;50.838;7.214;2023-03-31T00:21:22;11.80;99.90
30399;DHT22;17195;50.838;7.214;2023-03-31T00:24:02;11.80;99.90
30399;DHT22;17195;50.838;7.214;2023-03-31T00:26:28;11.80;99.90
30399;DHT22;17195;50.838;7.214;2023-03-31T00:28:55;11.80;99.90
30399;DHT22;17195;50.838;7.214;2023-03-31T00:31:21;11.90;99.90
30399;DHT22;17195;50.838;7.214;2023-03-31T00:33:47;11.80;99.90
30399;DHT22;17195;50.838;7.214;2023-03-31T00:36:13;11.80;99.90
30399;DHT22;17195;50.838;7.214;2023-03-31T00:38:46;11.80;99.90
30399;DHT22;17195;50.838;7.214;2023-03-31T00:41:13;11.80;99.90
30399;DHT22;17195;50.838;7.214;2023-03-31T00:43:39;11.80;99.90
30399;DHT22;17195;50.838;7.214;2023-03-31T00:46:17;11.80;99.90
30399;DHT22;17195;50.838;7.214;2023-03-31T00:48:49;11.80;99.90
30399;DHT22;17195;50.838;7.214;2023-03-31T00:51:17;11.70;99.90
30399;DHT22;17195;50.838;7.214;2023-03-31T00:53:45;11.70;99.90
30399;DHT22;17195;50.838;7.214;2023-03-31T00:56:13;11.60;99.90
30399;DHT22;17195;50.838;7.214;2023-03-31T00:58:40;11.60;99.90
30399;DHT22;17195;50.838;7.214;2023-03-31T01:01:10;11.60;99.90
30399;DHT22;17195;50.838;7.214;2023-03-31T01:03:39;11.50;99.90
30399;DHT22;17195;50.838;7.214;2023-03-31T01:06:07;11.50;99.90
30399;DHT22;17195;50.838;7.214;2023-03-31T01:08:36;11.50;99.90
30399;DHT22;17195;50.838;7.214;2023-03-31T01:11:05;11.40;99.90
30399;DHT22;17195;50.838;7.214;2023-03-31T01:13:33;11.40;99.90
30399;DHT22;17195;50.838;7.214;2023-03-31T01:15:59;11.30;99.90
30399;DHT22;17195;50.838;7.214;2023-03-31T01:18:25;11.20;99.90
30399;DHT22;17195;50.838;7.214;2023-03-31T01:27:01;11.10;99.90
30399;DHT22;17195;50.838;7.214;2023-03-31T01:29:46;11.10;99.90
30399;DHT22;17195;50.838;7.214;2023-03-31T01:40:44;11.20;99.90
30399;DHT22;17195;50.838;7.214;2023-03-31T01:43:16;11.30;99.90
30399;DHT22;17195;50.838;7.214;2023-03-31T01:46:08;11.30;99.90
30399;DHT22;17195;50.838;7.214;2023-03-31T01:49:40;11.40;99.90
30399;DHT22;17195;50.838;7.214;2023-03-31T01:51:34;11.40;99.90
30399;DHT22;17195;50.838;7.214;2023-03-31T01:56:48;11.50;99.90
30399;DHT22;17195;50.838;7.214;2023-03-31T01:59:17;11.60;99.90
30399;DHT22;17195;50.838;7.214;2023-03-31T02:01:50;11.60;99.90
30399;DHT22;17195;50.838;7.214;2023-03-31T02:04:23;11.70;99.90
30399;DHT22;17195;50.838;7.214;2023-03-31T02:06:56;11.70;99.90
30399;DHT22;17195;50.838;7.214;2023-03-31T02:09:27;11.70;99.90
30399;DHT22;17195;50.838;7.214;2023-03-31T02:11:54;11.70;99.90
30399;DHT22;17195;50.838;7.214;2023-03-31T02:14:24;11.80;99.90
30399;DHT22;17195;50.838;7.214;2023-03-31T02:16:55;11.70;99.90
30399;DHT22;17195;50.838;7.214;2023-03-31T02:19:30;11.70;99.90
30399;DHT22;17195;50.838;7.214;2023-03-31T02:21:56;11.70;99.90
30399;DHT22;17195;50.838;7.214;2023-03-31T02:24:25;11.70;99.90
30399;DHT22;17195;50.838;7.214;2023-03-31T02:26:56;11.70;99.90
30399;DHT22;17195;50.838;7.214;2023-03-31T02:29:24;11.60;99.90
30399;DHT22;17195;50.838;7.214;2023-03-31T02:34:28;11.60;99.90
30399;DHT22;17195;50.838;7.214;2023-03-31T02:36:54;11.60;99.90
30399;DHT22;17195;50.838;7.214;2023-03-31T02:39:26;11.60;99.90
30399;DHT22;17195;50.838;7.214;2023-03-31T02:41:53;11.50;99.90
30399;DHT22;17195;50.838;7.214;2023-03-31T02:44:19;11.50;99.90
30399;DHT22;17195;50.838;7.214;2023-03-31T02:46:46;11.50;99.90
30399;DHT22;17195;50.838;7.214;2023-03-31T02:49:12;11.50;99.90
30399;DHT22;17195;50.838;7.214;2023-03-31T02:51:48;11.50;99.90
30399;DHT22;17195;50.838;7.214;2023-03-31T02:54:42;11.50;99.90
30399;DHT22;17195;50.838;7.214;2023-03-31T03:06:25;11.40;99.90
30399;DHT22;17195;50.838;7.214;2023-03-31T03:12:13;11.30;99.90
30399;DHT22;17195;50.838;7.214;2023-03-31T03:17:38;11.30;99.90
30399;DHT22;17195;50.838;7.214;2023-03-31T03:20:06;11.30;99.90
30399;DHT22;17195;50.838;7.214;2023-03-31T03:22:34;11.30;99.90
30399;DHT22;17195;50.838;7.214;2023-03-31T03:25:00;11.30;99.90
30399;DHT22;17195;50.838;7.214;2023-03-31T03:27:25;11.30;99.90
30399;DHT22;17195;50.838;7.214;2023-03-31T03:29:51;11.30;99.90
30399;DHT22;17195;50.838;7.214;2023-03-31T03:32:16;11.30;99.90
30399;DHT22;17195;50.838;7.214;2023-03-31T03:34:42;11.30;99.90
30399;DHT22;17195;50.838;7.214;2023-03-31T03:37:08;11.30;99.90
30399;DHT22;17195;50.838;7.214;2023-03-31T03:39:33;11.30;99.90
30399;DHT22;17195;50.838;7.214;2023-03-31T03:41:59;11.30;99.90
30399;DHT22;17195;50.838;7.214;2023-03-31T03:44:25;11.30;99.90
30399;DHT22;17195;50.838;7.214;2023-03-31T03:46:50;11.30;99.90
30399;DHT22;17195;50.838;7.214;2023-03-31T03:49:16;11.20;99.90
30399;DHT22;17195;50.838;7.214;2023-03-31T03:51:41;11.20;99.90
30399;DHT22;17195;50.838;7.214;2023-03-31T03:54:07;11.30;99.90
30399;DHT22;17195;50.838;7.214;2023-03-31T03:56:32;11.30;99.90
30399;DHT22;17195;50.838;7.214;2023-03-31T03:58:58;11.30;99.90
30399;DHT22;17195;50.838;7.214;2023-03-31T04:01:23;11.30;99.90
30399;DHT22;17195;50.838;7.214;2023-03-31T04:03:49;11.30;99.90
30399;DHT22;17195;50.838;7.214;2023-03-31T04:06:15;11.30;99.90
30399;DHT22;17195;50.838;7.214;2023-03-31T04:08:40;11.30;99.90
30399;DHT22;17195;50.838;7.214;2023-03-31T04:11:14;11.30;99.90
30399;DHT22;17195;50.838;7.214;2023-03-31T04:13:41;11.30;99.90
30399;DHT22;17195;50.838;7.214;2023-03-31T04:16:07;11.30;99.90
30399;DHT22;17195;50.838;7.214;2023-03-31T04:18:32;11.30;99.90
30399;DHT22;17195;50.838;7.214;2023-03-31T04:21:01;11.30;99.90
30399;DHT22;17195;50.838;7.214;2023-03-31T04:23:35;11.30;99.90
30399;DHT22;17195;50.838;7.214;2023-03-31T04:26:11;11.30;99.90
30399;DHT22;17195;50.838;7.214;2023-03-31T04:28:37;11.30;99.90
30399;DHT22;17195;50.838;7.214;2023-03-31T04:31:08;11.30;99.90
30399;DHT22;17195;50.838;7.214;2023-03-31T04:33:34;11.30;99.90
30399;DHT22;17195;50.838;7.214;2023-03-31T04:36:06;11.20;99.90
30399;DHT22;17195;50.838;7.214;2023-03-31T04:38:46;11.20;99.90
30399;DHT22;17195;50.838;7.214;2023-03-31T04:41:15;11.20;99.90
30399;DHT22;17195;50.838;7.214;2023-03-31T04:43:41;11.20;99.90
30399;DHT22;17195;50.838;7.214;2023-03-31T04:46:07;11.20;99.90
30399;DHT22;17195;50.838;7.214;2023-03-31T04:48:33;11.20;99.90
30399;DHT22;17195;50.838;7.214;2023-03-31T04:50:58;11.10;99.90
30399;DHT22;17195;50.838;7.214;2023-03-31T04:53:24;11.10;99.90
30399;DHT22;17195;50.838;7.214;2023-03-31T04:55:50;11.10;99.90
30399;DHT22;17195;50.838;7.214;2023-03-31T04:58:16;11.00;99.90
30399;DHT22;17195;50.838;7.214;2023-03-31T05:00:42;11.00;99.90
30399;DHT22;17195;50.838;7.214;2023-03-31T05:03:07;10.90;99.90
30399;DHT22;17195;50.838;7.214;2023-03-31T05:05:34;10.90;99.90
30399;DHT22;17195;50.838;7.214;2023-03-31T05:08:00;10.90;99.90
30399;DHT22;17195;50.838;7.214;2023-03-31T05:10:25;10.90;99.90
30399;DHT22;17195;50.838;7.214;2023-03-31T05:12:51;10.90;99.90
30399;DHT22;17195;50.838;7.214;2023-03-31T05:15:16;10.90;99.90
30399;DHT22;17195;50.838;7.214;2023-03-31T05:17:42;10.90;99.90
30399;DHT22;17195;50.838;7.214;2023-03-31T05:20:08;10.90;99.90
30399;DHT22;17195;50.838;7.214;2023-03-31T05:22:38;10.90;99.90
30399;DHT22;17195;50.838;7.214;2023-03-31T05:25:06;11.00;99.90
30399;DHT22;17195;50.838;7.214;2023-03-31T05:27:32;11.00;99.90
30399;DHT22;17195;50.838;7.214;2023-03-31T05:29:57;11.10;99.90
30399;DHT22;17195;50.838;7.214;2023-03-31T05:32:24;11.10;99.90
30399;DHT22;17195;50.838;7.214;2023-03-31T05:34:50;11.20;99.90
30399;DHT22;17195;50.838;7.214;2023-03-31T05:37:18;11.20;99.90
30399;DHT22;17195;50.838;7.214;2023-03-31T05:39:44;11.20;99.90
30399;DHT22;17195;50.838;7.214;2023-03-31T05:42:10;11.20;99.90
30399;DHT22;17195;50.838;7.214;2023-03-31T05:44:35;11.20;99.90
30399;DHT22;17195;50.838;7.214;2023-03-31T05:47:01;11.20;99.90
30399;DHT22;17195;50.838;7.214;2023-03-31T05:49:26;11.30;99.90
30399;DHT22;17195;50.838;7.214;2023-03-31T05:51:52;11.30;99.90
30399;DHT22;17195;50.838;7.214;2023-03-31T05:54:17;11.40;99.90
30399;DHT22;17195;50.838;7.214;2023-03-31T05:56:43;11.30;99.90
30399;DHT22;17195;50.838;7.214;2023-03-31T05:59:08;11.30;99.90
30399;DHT22;17195;50.838;7.214;2023-03-31T06:01:34;11.40;99.90
30399;DHT22;17195;50.838;7.214;2023-03-31T06:04:00;11.40;99.90
30399;DHT22;17195;50.838;7.214;2023-03-31T06:06:25;11.50;99.90
30399;DHT22;17195;50.838;7.214;2023-03-31T06:08:52;11.40;99.90
30399;DHT22;17195;50.838;7.214;2023-03-31T06:11:19;11.40;99.90
30399;DHT22;17195;50.838;7.214;2023-03-31T06:13:45;11.40;99.90
30399;DHT22;17195;50.838;7.214;2023-03-31T06:16:12;11.40;99.90
30399;DHT22;17195;50.838;7.214;2023-03-31T06:18:38;11.40;99.90
30399;DHT22;17195;50.838;7.214;2023-03-31T06:21:05;11.40;99.90
30399;DHT22;17195;50.838;7.214;2023-03-31T06:23:31;11.40;99.90
30399;DHT22;17195;50.838;7.214;2023-03-31T06:26:03;11.40;99.90
30399;DHT22;17195;50.838;7.214;2023-03-31T06:28:29;11.40;99.90
30399;DHT22;17195;50.838;7.214;2023-03-31T06:31:03;11.40;99.90
30399;DHT22;17195;50.838;7.214;2023-03-31T06:33:30;11.40;99.90
30399;DHT22;17195;50.838;7.214;2023-03-31T06:35:56;11.40;99.90
30399;DHT22;17195;50.838;7.214;2023-03-31T06:38:24;11.40;99.90
30399;DHT22;17195;50.838;7.214;2023-03-31T06:40:50;11.40;99.90
30399;DHT22;17195;50.838;7.214;2023-03-31T06:43:16;11.40;99.90
30399;DHT22;17195;50.838;7.214;2023-03-31T06:45:41;11.40;99.90
30399;DHT22;17195;50.838;7.214;2023-03-31T06:48:07;11.40;99.90
30399;DHT22;17195;50.838;7.214;2023-03-31T06:50:32;11.50;99.90
30399;DHT22;17195;50.838;7.214;2023-03-31T06:52:58;11.50;99.90
30399;DHT22;17195;50.838;7.214;2023-03-31T06:55:24;11.50;99.90
30399;DHT22;17195;50.838;7.214;2023-03-31T06:57:50;11.60;99.90
30399;DHT22;17195;50.838;7.214;2023-03-31T07:00:16;11.60;99.90
30399;DHT22;17195;50.838;7.214;2023-03-31T07:02:41;11.70;99.90
30399;DHT22;17195;50.838;7.214;2023-03-31T07:05:07;11.80;99.90
30399;DHT22;17195;50.838;7.214;2023-03-31T07:07:33;11.90;99.90
30399;DHT22;17195;50.838;7.214;2023-03-31T07:09:59;11.90;99.90
30399;DHT22;17195;50.838;7.214;2023-03-31T07:12:24;12.00;99.90
30399;DHT22;17195;50.838;7.214;2023-03-31T07:14:50;12.10;99.90
30399;DHT22;17195;50.838;7.214;2023-03-31T07:17:16;12.10;99.90
30399;DHT22;17195;50.838;7.214;2023-03-31T07:19:41;12.30;99.90
30399;DHT22;17195;50.838;7.214;2023-03-31T07:22:07;12.40;99.90
30399;DHT22;17195;50.838;7.214;2023-03-31T07:24:33;12.50;99.90
30399;DHT22;17195;50.838;7.214;2023-03-31T07:26:59;12.60;99.90
30399;DHT22;17195;50.838;7.214;2023-03-31T07:29:24;12.70;99.90
30399;DHT22;17195;50.838;7.214;2023-03-31T07:31:50;12.70;99.90
30399;DHT22;17195;50.838;7.214;2023-03-31T07:34:17;12.80;99.90
30399;DHT22;17195;50.838;7.214;2023-03-31T07:36:42;12.80;99.90
30399;DHT22;17195;50.838;7.214;2023-03-31T07:39:08;12.80;99.90
30399;DHT22;17195;50.838;7.214;2023-03-31T07:41:33;12.80;99.90
30399;DHT22;17195;50.838;7.214;2023-03-31T07:43:59;12.90;99.90
30399;DHT22;17195;50.838;7.214;2023-03-31T07:46:26;12.90;99.90
30399;DHT22;17195;50.838;7.214;2023-03-31T07:48:54;13.10;99.90
30399;DHT22;17195;50.838;7.214;2023-03-31T07:51:22;13.20;99.90
30399;DHT22;17195;50.838;7.214;2023-03-31T07:53:48;13.30;99.90
30399;DHT22;17195;50.838;7.214;2023-03-31T07:56:18;13.40;99.90
30399;DHT22;17195;50.838;7.214;2023-03-31T07:58:43;13.50;99.90
30399;DHT22;17195;50.838;7.214;2023-03-31T08:01:11;13.60;99.90
30399;DHT22;17195;50.838;7.214;2023-03-31T08:03:41;13.70;99.90
30399;DHT22;17195;50.838;7.214;2023-03-31T08:06:07;13.90;99.90
30399;DHT22;17195;50.838;7.214;2023-03-31T08:08:32;13.80;99.90
30399;DHT22;17195;50.838;7.214;2023-03-31T08:10:58;13.80;99.90
30399;DHT22;17195;50.838;7.214;2023-03-31T08:13:24;13.80;99.90
30399;DHT22;17195;50.838;7.214;2023-03-31T08:15:50;13.80;99.90
30399;DHT22;17195;50.838;7.214;2023-03-31T08:18:16;13.80;99.90
30399;DHT22;17195;50.838;7.214;2023-03-31T08:20:41;13.90;99.90
30399;DHT22;17195;50.838;7.214;2023-03-31T08:23:07;14.00;99.90
30399;DHT22;17195;50.838;7.214;2023-03-31T08:25:36;14.10;99.90
30399;DHT22;17195;50.838;7.214;2023-03-31T08:28:01;14.30;99.90
30399;DHT22;17195;50.838;7.214;2023-03-31T08:30:27;14.30;99.90
30399;DHT22;17195;50.838;7.214;2023-03-31T08:32:52;14.40;99.90
30399;DHT22;17195;50.838;7.214;2023-03-31T08:35:18;14.50;99.90
30399;DHT22;17195;50.838;7.214;2023-03-31T08:37:43;14.40;99.90
30399;DHT22;17195;50.838;7.214;2023-03-31T08:40:18;14.40;99.90
30399;DHT22;17195;50.838;7.214;2023-03-31T08:42:46;14.40;99.90
30399;DHT22;17195;50.838;7.214;2023-03-31T08:45:31;14.30;99.90
30399;DHT22;17195;50.838;7.214;2023-03-31T08:48:20;14.20;99.90
30399;DHT22;17195;50.838;7.214;2023-03-31T08:50:51;14.20;99.90
30399;DHT22;17195;50.838;7.214;2023-03-31T08:53:30;14.10;99.90
30399;DHT22;17195;50.838;7.214;2023-03-31T08:55:57;14.10;99.90
30399;DHT22;17195;50.838;7.214;2023-03-31T08:58:42;14.10;99.90
30399;DHT22;17195;50.838;7.214;2023-03-31T09:06:37;14.30;99.90
30399;DHT22;17195;50.838;7.214;2023-03-31T09:09:09;14.40;99.90
30399;DHT22;17195;50.838;7.214;2023-03-31T09:11:50;14.40;99.90
30399;DHT22;17195;50.838;7.214;2023-03-31T09:14:32;14.50;99.90
30399;DHT22;17195;50.838;7.214;2023-03-31T09:17:11;14.50;99.90
30399;DHT22;17195;50.838;7.214;2023-03-31T09:19:45;14.60;99.90
30399;DHT22;17195;50.838;7.214;2023-03-31T09:22:25;14.80;99.90
30399;DHT22;17195;50.838;7.214;2023-03-31T09:25:15;14.90;99.90
30399;DHT22;17195;50.838;7.214;2023-03-31T09:27:43;15.00;99.90
30399;DHT22;17195;50.838;7.214;2023-03-31T09:30:18;15.00;99.90
30399;DHT22;17195;50.838;7.214;2023-03-31T09:32:48;15.00;99.90
30399;DHT22;17195;50.838;7.214;2023-03-31T09:35:19;15.10;99.90
30399;DHT22;17195;50.838;7.214;2023-03-31T09:37:46;15.20;99.90
30399;DHT22;17195;50.838;7.214;2023-03-31T09:40:18;15.30;99.90
30399;DHT22;17195;50.838;7.214;2023-03-31T09:42:59;15.30;99.90
30399;DHT22;17195;50.838;7.214;2023-03-31T09:45:25;15.40;99.90
30399;DHT22;17195;50.838;7.214;2023-03-31T09:47:54;15.30;99.90
30399;DHT22;17195;50.838;7.214;2023-03-31T09:50:21;15.20;99.90
30399;DHT22;17195;50.838;7.214;2023-03-31T09:52:52;15.20;99.90
30399;DHT22;17195;50.838;7.214;2023-03-31T09:57:45;15.50;99.90
30399;DHT22;17195;50.838;7.214;2023-03-31T10:03:00;15.60;99.90
30399;DHT22;17195;50.838;7.214;2023-03-31T10:14:18;16.10;99.90
30399;DHT22;17195;50.838;7.214;2023-03-31T10:16:31;16.10;99.90
30399;DHT22;17195;50.838;7.214;2023-03-31T10:19:27;15.90;99.90
30399;DHT22;17195;50.838;7.214;2023-03-31T10:24:21;15.70;99.90
30399;DHT22;17195;50.838;7.214;2023-03-31T10:26:48;15.60;99.90
30399;DHT22;17195;50.838;7.214;2023-03-31T10:29:26;15.40;99.90
30399;DHT22;17195;50.838;7.214;2023-03-31T10:31:54;15.30;99.90
30399;DHT22;17195;50.838;7.214;2023-03-31T10:34:20;15.20;99.90
30399;DHT22;17195;50.838;7.214;2023-03-31T10:36:49;15.20;99.90
30399;DHT22;17195;50.838;7.214;2023-03-31T10:39:19;15.30;99.90
30399;DHT22;17195;50.838;7.214;2023-03-31T10:41:51;15.40;99.90
30399;DHT22;17195;50.838;7.214;2023-03-31T10:44:36;15.30;99.90
30399;DHT22;17195;50.838;7.214;2023-03-31T10:49:39;15.20;99.90
30399;DHT22;17195;50.838;7.214;2023-03-31T10:52:22;15.10;99.90
30399;DHT22;17195;50.838;7.214;2023-03-31T10:54:58;14.90;99.90
30399;DHT22;17195;50.838;7.214;2023-03-31T10:58:27;14.80;99.90
30399;DHT22;17195;50.838;7.214;2023-03-31T11:08:52;13.80;99.90
30399;DHT22;17195;50.838;7.214;2023-03-31T11:21:59;13.10;99.90
30399;DHT22;17195;50.838;7.214;2023-03-31T11:25:00;13.10;99.90
30399;DHT22;17195;50.838;7.214;2023-03-31T11:27:34;13.10;99.90
30399;DHT22;17195;50.838;7.214;2023-03-31T11:33:15;13.00;99.90
30399;DHT22;17195;50.838;7.214;2023-03-31T11:41:07;13.60;99.90
30399;DHT22;17195;50.838;7.214;2023-03-31T11:43:39;13.80;99.90
30399;DHT22;17195;50.838;7.214;2023-03-31T11:48:58;14.30;99.90
30399;DHT22;17195;50.838;7.214;2023-03-31T11:51:36;14.40;99.90
30399;DHT22;17195;50.838;7.214;2023-03-31T11:54:04;14.50;99.90
30399;DHT22;17195;50.838;7.214;2023-03-31T11:56:38;14.50;99.90
30399;DHT22;17195;50.838;7.214;2023-03-31T11:59:05;14.50;99.90
30399;DHT22;17195;50.838;7.214;2023-03-31T12:01:47;14.50;99.90
30399;DHT22;17195;50.838;7.214;2023-03-31T12:04:20;14.40;99.90
30399;DHT22;17195;50.838;7.214;2023-03-31T12:06:49;14.40;99.90
30399;DHT22;17195;50.838;7.214;2023-03-31T12:09:24;14.40;99.90
30399;DHT22;17195;50.838;7.214;2023-03-31T12:12:09;14.40;99.90
30399;DHT22;17195;50.838;7.214;2023-03-31T12:14:45;14.40;99.90
30399;DHT22;17195;50.838;7.214;2023-03-31T12:17:16;14.40;99.90
30399;DHT22;17195;50.838;7.214;2023-03-31T12:19:45;14.40;99.90
30399;DHT22;17195;50.838;7.214;2023-03-31T12:22:42;14.30;99.90
30399;DHT22;17195;50.838;7.214;2023-03-31T12:25:11;14.20;99.90
30399;DHT22;17195;50.838;7.214;2023-03-31T12:27:39;14.20;99.90
30399;DHT22;17195;50.838;7.214;2023-03-31T12:30:24;14.30;99.90
30399;DHT22;17195;50.838;7.214;2023-03-31T12:32:55;14.20;99.90
30399;DHT22;17195;50.838;7.214;2023-03-31T12:35:34;14.30;99.90
30399;DHT22;17195;50.838;7.214;2023-03-31T12:41:03;14.40;99.90
30399;DHT22;17195;50.838;7.214;2023-03-31T12:44:05;14.60;99.90
30399;DHT22;17195;50.838;7.214;2023-03-31T12:57:29;14.70;99.90
30399;DHT22;17195;50.838;7.214;2023-03-31T13:02:37;14.80;99.90
30399;DHT22;17195;50.838;7.214;2023-03-31T13:08:08;15.10;99.90
30399;DHT22;17195;50.838;7.214;2023-03-31T13:11:01;15.00;99.90
30399;DHT22;17195;50.838;7.214;2023-03-31T13:13:26;14.80;99.90
30399;DHT22;17195;50.838;7.214;2023-03-31T13:15:54;14.80;99.90
30399;DHT22;17195;50.838;7.214;2023-03-31T13:18:21;14.80;99.90
30399;DHT22;17195;50.838;7.214;2023-03-31T13:21:02;14.80;99.90
30399;DHT22;17195;50.838;7.214;2023-03-31T13:23:32;14.80;99.90
30399;DHT22;17195;50.838;7.214;2023-03-31T13:25:58;14.80;99.90
30399;DHT22;17195;50.838;7.214;2023-03-31T13:47:38;13.10;99.90
30399;DHT22;17195;50.838;7.214;2023-03-31T13:50:36;13.30;99.90
30399;DHT22;17195;50.838;7.214;2023-03-31T13:53:35;13.50;99.90
30399;DHT22;17195;50.838;7.214;2023-03-31T14:02:35;14.20;99.90
30399;DHT22;17195;50.838;7.214;2023-03-31T14:05:22;14.40;99.90
30399;DHT22;17195;50.838;7.214;2023-03-31T14:08:01;14.50;99.90
30399;DHT22;17195;50.838;7.214;2023-03-31T14:10:29;14.60;99.90
30399;DHT22;17195;50.838;7.214;2023-03-31T14:13:10;14.60;99.90
30399;DHT22;17195;50.838;7.214;2023-03-31T14:15:39;14.60;99.90
30399;DHT22;17195;50.838;7.214;2023-03-31T14:18:06;14.60;99.90
30399;DHT22;17195;50.838;7.214;2023-03-31T14:31:51;14.60;99.90
30399;DHT22;17195;50.838;7.214;2023-03-31T14:36:59;14.50;99.90
30399;DHT22;17195;50.838;7.214;2023-03-31T14:39:31;14.50;99.90
30399;DHT22;17195;50.838;7.214;2023-03-31T14:42:09;14.50;99.90
30399;DHT22;17195;50.838;7.214;2023-03-31T14:44:36;14.60;99.90
30399;DHT22;17195;50.838;7.214;2023-03-31T14:47:02;14.60;99.90
30399;DHT22;17195;50.838;7.214;2023-03-31T14:49:35;14.80;99.90
30399;DHT22;17195;50.838;7.214;2023-03-31T14:52:12;15.00;99.90
30399;DHT22;17195;50.838;7.214;2023-03-31T14:54:37;15.20;99.90
30399;DHT22;17195;50.838;7.214;2023-03-31T14:57:05;15.30;99.90
30399;DHT22;17195;50.838;7.214;2023-03-31T14:59:33;15.40;99.90
30399;DHT22;17195;50.838;7.214;2023-03-31T15:02:01;15.20;99.90
30399;DHT22;17195;50.838;7.214;2023-03-31T15:04:29;15.10;99.90
30399;DHT22;17195;50.838;7.214;2023-03-31T15:06:56;15.00;99.90
30399;DHT22;17195;50.838;7.214;2023-03-31T15:09:29;14.90;99.90
30399;DHT22;17195;50.838;7.214;2023-03-31T15:11:58;14.90;99.90
30399;DHT22;17195;50.838;7.214;2023-03-31T15:14:29;14.80;99.90
30399;DHT22;17195;50.838;7.214;2023-03-31T15:16:55;14.70;99.90
30399;DHT22;17195;50.838;7.214;2023-03-31T15:19:30;14.60;99.90
30399;DHT22;17195;50.838;7.214;2023-03-31T15:22:04;14.60;99.90
30399;DHT22;17195;50.838;7.214;2023-03-31T15:24:33;14.60;99.90
30399;DHT22;17195;50.838;7.214;2023-03-31T15:27:06;14.60;99.90
30399;DHT22;17195;50.838;7.214;2023-03-31T15:29:46;14.60;99.90
30399;DHT22;17195;50.838;7.214;2023-03-31T15:32:29;14.60;99.90
30399;DHT22;17195;50.838;7.214;2023-03-31T15:34:57;14.50;99.90
30399;DHT22;17195;50.838;7.214;2023-03-31T15:37:26;14.60;99.90
30399;DHT22;17195;50.838;7.214;2023-03-31T15:39:55;14.50;99.90
30399;DHT22;17195;50.838;7.214;2023-03-31T15:42:22;14.50;99.90
30399;DHT22;17195;50.838;7.214;2023-03-31T15:47:51;14.40;99.90
30399;DHT22;17195;50.838;7.214;2023-03-31T15:50:20;14.40;99.90
30399;DHT22;17195;50.838;7.214;2023-03-31T15:52:52;14.40;99.90
30399;DHT22;17195;50.838;7.214;2023-03-31T15:55:32;14.40;99.90
30399;DHT22;17195;50.838;7.214;2023-03-31T15:58:03;14.40;99.90
30399;DHT22;17195;50.838;7.214;2023-03-31T16:00:42;14.30;99.90
30399;DHT22;17195;50.838;7.214;2023-03-31T16:03:17;14.30;99.90
30399;DHT22;17195;50.838;7.214;2023-03-31T16:05:54;14.30;99.90
30399;DHT22;17195;50.838;7.214;2023-03-31T16:08:29;14.30;99.90
30399;DHT22;17195;50.838;7.214;2023-03-31T16:11:00;14.20;99.90
30399;DHT22;17195;50.838;7.214;2023-03-31T16:13:29;14.20;99.90
30399;DHT22;17195;50.838;7.214;2023-03-31T16:15:56;14.20;99.90
30399;DHT22;17195;50.838;7.214;2023-03-31T16:18:34;14.20;99.90
30399;DHT22;17195;50.838;7.214;2023-03-31T16:21:04;14.10;99.90
30399;DHT22;17195;50.838;7.214;2023-03-31T16:23:32;14.10;99.90
30399;DHT22;17195;50.838;7.214;2023-03-31T16:26:00;14.10;99.90
30399;DHT22;17195;50.838;7.214;2023-03-31T16:28:28;14.00;99.90
30399;DHT22;17195;50.838;7.214;2023-03-31T16:30:54;14.00;99.90
30399;DHT22;17195;50.838;7.214;2023-03-31T16:33:21;14.00;99.90
30399;DHT22;17195;50.838;7.214;2023-03-31T16:35:50;14.00;99.90
30399;DHT22;17195;50.838;7.214;2023-03-31T16:38:18;14.00;99.90
30399;DHT22;17195;50.838;7.214;2023-03-31T16:40:50;13.90;99.90
30399;DHT22;17195;50.838;7.214;2023-03-31T16:43:19;13.90;99.90
30399;DHT22;17195;50.838;7.214;2023-03-31T16:45:50;13.90;99.90
30399;DHT22;17195;50.838;7.214;2023-03-31T16:48:17;13.80;99.90
30399;DHT22;17195;50.838;7.214;2023-03-31T16:50:48;13.80;99.90
30399;DHT22;17195;50.838;7.214;2023-03-31T16:53:16;13.80;99.90
30399;DHT22;17195;50.838;7.214;2023-03-31T16:55:43;13.70;99.90
30399;DHT22;17195;50.838;7.214;2023-03-31T16:58:09;13.70;99.90
30399;DHT22;17195;50.838;7.214;2023-03-31T17:00:35;13.80;99.90
30399;DHT22;17195;50.838;7.214;2023-03-31T17:03:02;13.80;99.90
30399;DHT22;17195;50.838;7.214;2023-03-31T17:05:28;13.70;99.90
30399;DHT22;17195;50.838;7.214;2023-03-31T17:07:56;13.70;99.90
30399;DHT22;17195;50.838;7.214;2023-03-31T17:10:23;13.70;99.90
30399;DHT22;17195;50.838;7.214;2023-03-31T17:12:48;13.70;99.90
30399;DHT22;17195;50.838;7.214;2023-03-31T17:15:14;13.70;99.90
30399;DHT22;17195;50.838;7.214;2023-03-31T17:17:40;13.70;99.90
30399;DHT22;17195;50.838;7.214;2023-03-31T17:20:07;13.60;99.90
30399;DHT22;17195;50.838;7.214;2023-03-31T17:22:33;13.60;99.90
30399;DHT22;17195;50.838;7.214;2023-03-31T17:24:59;13.60;99.90
30399;DHT22;17195;50.838;7.214;2023-03-31T17:27:26;13.60;99.90
30399;DHT22;17195;50.838;7.214;2023-03-31T17:29:52;13.50;99.90
30399;DHT22;17195;50.838;7.214;2023-03-31T17:32:18;13.50;99.90
30399;DHT22;17195;50.838;7.214;2023-03-31T17:34:44;13.40;99.90
30399;DHT22;17195;50.838;7.214;2023-03-31T17:37:12;13.40;99.90
30399;DHT22;17195;50.838;7.214;2023-03-31T17:39:38;13.40;99.90
30399;DHT22;17195;50.838;7.214;2023-03-31T17:42:04;13.40;99.90
30399;DHT22;17195;50.838;7.214;2023-03-31T17:44:29;13.40;99.90
30399;DHT22;17195;50.838;7.214;2023-03-31T17:46:55;13.30;99.90
30399;DHT22;17195;50.838;7.214;2023-03-31T17:49:21;13.30;99.90
30399;DHT22;17195;50.838;7.214;2023-03-31T17:51:47;13.30;99.90
30399;DHT22;17195;50.838;7.214;2023-03-31T17:54:13;13.30;99.90
30399;DHT22;17195;50.838;7.214;2023-03-31T17:56:38;13.30;99.90
30399;DHT22;17195;50.838;7.214;2023-03-31T17:59:05;13.30;99.90
30399;DHT22;17195;50.838;7.214;2023-03-31T18:01:31;13.30;99.90
30399;DHT22;17195;50.838;7.214;2023-03-31T18:03:57;13.20;99.90
30399;DHT22;17195;50.838;7.214;2023-03-31T18:06:22;13.20;99.90
30399;DHT22;17195;50.838;7.214;2023-03-31T18:08:49;13.20;99.90
30399;DHT22;17195;50.838;7.214;2023-03-31T18:11:15;13.20;99.90
30399;DHT22;17195;50.838;7.214;2023-03-31T18:13:41;13.20;99.90
30399;DHT22;17195;50.838;7.214;2023-03-31T18:16:08;13.20;99.90
30399;DHT22;17195;50.838;7.214;2023-03-31T18:18:35;13.10;99.90